Abbeville, MS (38601)

1:19 PM CDT on May 25, 2015 (GMT -0500)
University-Oxford | | Change Station
CLOSE
Current Station
Airport
Location: Oxford,
Elevation: 453 ft
Nearby Weather Stations

Elev 453 ft 34.38 °N, 89.54 °W | Updated 24 minutes ago

Overcast
Overcast
75 °F
Feels Like 75 °F
N
10
Wind Variable Wind from SE

Today
High -- | Low -- °F
--% Chance of Precip.
Yesterday
High -- | Low -- °F
Precip. -- in
5:49 AM 8:01 PM
Waxing Crescent, 50% visible
Pressure 30.12 in
Visibility 10.0 miles
Clouds Few 1400 ft
Few 2000 ft
Mostly Cloudy 2700 ft
Dew Point 68 °F
Humidity 78%
Rainfall 0.00 in
Snow Depth Not available.
UV 6 out of 12
Pollen .70 out of 12
Air Quality Not available.
Flu Activity No Activity
METAR KUOX 251755Z AUTO 14009KT 10SM FEW014 FEW020 BKN027 24/20 A3012 RMK AO2 PWINO PNO

More Conditions Fewer Conditions

Pressure 30.12 in
Visibility 10.0 miles
Clouds Few 1400 ft
Few 2000 ft
Mostly Cloudy 2700 ft
Dew Point 68 °F
Humidity 78%
Rainfall 0.00 in
Snow Depth Not available.
UV 6 out of 12
Pollen .70 out of 12
Air Quality Not available.
Flu Activity No Activity
METAR KUOX 251755Z AUTO 14009KT 10SM FEW014 FEW020 BKN027 24/20 A3012 RMK AO2 PWINO PNO

More Conditions Fewer Conditions

10-Day Weather Forecast

Almanac

Astronomy

May. 25, 2015 Rise Set
Actual Time
Civil Twilight
Nautical Twilight
Astronomical Twilight
Moon
Length of Visible Light
Length of Day
Tomorrow will be .
, % of the Moon is Illuminated

Today's Extremes

State Highs State Lows

Community

WunderPhotos

Upload Photos

1,824,077 photos uploaded!

WunderBlogs® & News

Nearby

Air Quality

  Air Quality AQ Index Pollutant
Not available.

Snow Depth

Station Depth Elevation

Earthquake Activity

City Distance Mag. Time & Date
Minimum magnitude displayed is 2.5.

Coastal Water Temperatures

Place Temperature

Stations

Nearby Weather Stations

Station Location Temp. Windchill Dew Point Humidity Wind Precip. Elev Updated Type